sensor_id;sensor_type;location;lat;lon;timestamp;temperature;humidity
56771;DHT22;42641;59.794;17.616;2023-04-01T00:00:58;-5.10;99.90
56771;DHT22;42641;59.794;17.616;2023-04-01T00:03:26;-5.00;99.90
56771;DHT22;42641;59.794;17.616;2023-04-01T00:05:54;-5.00;99.90
56771;DHT22;42641;59.794;17.616;2023-04-01T00:08:22;-5.00;99.90
56771;DHT22;42641;59.794;17.616;2023-04-01T00:10:49;-5.00;99.90
56771;DHT22;42641;59.794;17.616;2023-04-01T00:13:16;-5.10;99.90
56771;DHT22;42641;59.794;17.616;2023-04-01T00:15:42;-5.10;99.90
56771;DHT22;42641;59.794;17.616;2023-04-01T00:18:09;-5.10;99.90
56771;DHT22;42641;59.794;17.616;2023-04-01T00:20:36;-5.10;99.90
56771;DHT22;42641;59.794;17.616;2023-04-01T00:23:03;-5.10;99.90
56771;DHT22;42641;59.794;17.616;2023-04-01T00:25:31;-5.10;99.90
56771;DHT22;42641;59.794;17.616;2023-04-01T00:27:57;-5.10;99.90
56771;DHT22;42641;59.794;17.616;2023-04-01T00:30:23;-5.10;99.90
56771;DHT22;42641;59.794;17.616;2023-04-01T00:32:54;-5.20;99.90
56771;DHT22;42641;59.794;17.616;2023-04-01T00:35:20;-5.30;99.90
56771;DHT22;42641;59.794;17.616;2023-04-01T00:37:47;-5.40;99.90
56771;DHT22;42641;59.794;17.616;2023-04-01T00:40:32;-5.40;99.90
56771;DHT22;42641;59.794;17.616;2023-04-01T00:42:59;-5.40;99.90
56771;DHT22;42641;59.794;17.616;2023-04-01T00:45:36;-5.40;99.90
56771;DHT22;42641;59.794;17.616;2023-04-01T00:48:11;-5.30;99.90
56771;DHT22;42641;59.794;17.616;2023-04-01T00:50:40;-5.30;99.90
56771;DHT22;42641;59.794;17.616;2023-04-01T00:53:08;-5.40;99.90
56771;DHT22;42641;59.794;17.616;2023-04-01T00:55:38;-5.40;99.90
56771;DHT22;42641;59.794;17.616;2023-04-01T00:58:09;-5.40;99.90
56771;DHT22;42641;59.794;17.616;2023-04-01T01:00:38;-5.40;99.90
56771;DHT22;42641;59.794;17.616;2023-04-01T01:03:04;-5.40;99.90
56771;DHT22;42641;59.794;17.616;2023-04-01T01:12:06;-5.50;99.90
56771;DHT22;42641;59.794;17.616;2023-04-01T01:25:32;-5.60;99.90
56771;DHT22;42641;59.794;17.616;2023-04-01T01:28:33;-5.70;99.90
56771;DHT22;42641;59.794;17.616;2023-04-01T01:31:25;-5.60;99.90
56771;DHT22;42641;59.794;17.616;2023-04-01T01:36:32;-5.60;99.90
56771;DHT22;42641;59.794;17.616;2023-04-01T01:39:07;-5.70;99.90
56771;DHT22;42641;59.794;17.616;2023-04-01T01:41:36;-5.80;99.90
56771;DHT22;42641;59.794;17.616;2023-04-01T01:44:04;-5.80;99.90
56771;DHT22;42641;59.794;17.616;2023-04-01T01:46:33;-5.80;99.90
56771;DHT22;42641;59.794;17.616;2023-04-01T01:49:00;-5.90;99.90
56771;DHT22;42641;59.794;17.616;2023-04-01T01:51:28;-5.90;99.90
56771;DHT22;42641;59.794;17.616;2023-04-01T01:53:55;-5.90;99.90
56771;DHT22;42641;59.794;17.616;2023-04-01T01:56:23;-5.80;99.90
56771;DHT22;42641;59.794;17.616;2023-04-01T01:59:00;-5.80;99.90
56771;DHT22;42641;59.794;17.616;2023-04-01T02:01:31;-5.80;99.90
56771;DHT22;42641;59.794;17.616;2023-04-01T02:04:08;-5.80;99.90
56771;DHT22;42641;59.794;17.616;2023-04-01T02:06:39;-5.90;99.90
56771;DHT22;42641;59.794;17.616;2023-04-01T02:09:07;-5.90;99.90
56771;DHT22;42641;59.794;17.616;2023-04-01T02:11:56;-6.00;99.90
56771;DHT22;42641;59.794;17.616;2023-04-01T02:14:28;-6.00;99.90
56771;DHT22;42641;59.794;17.616;2023-04-01T02:17:18;-5.90;99.90
56771;DHT22;42641;59.794;17.616;2023-04-01T02:19:53;-5.80;99.90
56771;DHT22;42641;59.794;17.616;2023-04-01T02:22:24;-5.90;99.90
56771;DHT22;42641;59.794;17.616;2023-04-01T02:24:57;-5.90;99.90
56771;DHT22;42641;59.794;17.616;2023-04-01T02:27:24;-5.90;99.90
56771;DHT22;42641;59.794;17.616;2023-04-01T02:29:52;-6.00;99.90
56771;DHT22;42641;59.794;17.616;2023-04-01T02:32:19;-6.00;99.90
56771;DHT22;42641;59.794;17.616;2023-04-01T02:34:47;-6.10;99.90
56771;DHT22;42641;59.794;17.616;2023-04-01T02:37:14;-6.00;99.90
56771;DHT22;42641;59.794;17.616;2023-04-01T02:39:41;-6.00;99.90
56771;DHT22;42641;59.794;17.616;2023-04-01T02:42:09;-5.90;99.90
56771;DHT22;42641;59.794;17.616;2023-04-01T02:44:35;-5.80;99.90
56771;DHT22;42641;59.794;17.616;2023-04-01T02:47:02;-5.70;99.90
56771;DHT22;42641;59.794;17.616;2023-04-01T02:49:29;-5.70;99.90
56771;DHT22;42641;59.794;17.616;2023-04-01T02:51:55;-5.80;99.90
56771;DHT22;42641;59.794;17.616;2023-04-01T02:54:21;-5.90;99.90
56771;DHT22;42641;59.794;17.616;2023-04-01T02:56:48;-6.10;99.90
56771;DHT22;42641;59.794;17.616;2023-04-01T02:59:14;-6.30;99.90
56771;DHT22;42641;59.794;17.616;2023-04-01T03:01:41;-6.40;99.90
56771;DHT22;42641;59.794;17.616;2023-04-01T03:04:07;-6.40;99.90
56771;DHT22;42641;59.794;17.616;2023-04-01T03:06:34;-6.40;99.90
56771;DHT22;42641;59.794;17.616;2023-04-01T03:09:00;-6.40;99.90
56771;DHT22;42641;59.794;17.616;2023-04-01T03:11:27;-6.50;99.90
56771;DHT22;42641;59.794;17.616;2023-04-01T03:13:53;-6.50;99.90
56771;DHT22;42641;59.794;17.616;2023-04-01T03:16:19;-6.50;99.90
56771;DHT22;42641;59.794;17.616;2023-04-01T03:18:46;-6.50;99.90
56771;DHT22;42641;59.794;17.616;2023-04-01T03:21:21;-6.50;99.90
56771;DHT22;42641;59.794;17.616;2023-04-01T03:23:47;-6.50;99.90
56771;DHT22;42641;59.794;17.616;2023-04-01T03:26:14;-6.60;99.90
56771;DHT22;42641;59.794;17.616;2023-04-01T03:28:42;-6.60;99.90
56771;DHT22;42641;59.794;17.616;2023-04-01T03:31:10;-6.70;99.90
56771;DHT22;42641;59.794;17.616;2023-04-01T03:33:42;-6.70;99.90
56771;DHT22;42641;59.794;17.616;2023-04-01T03:36:09;-6.80;99.90
56771;DHT22;42641;59.794;17.616;2023-04-01T03:38:38;-6.70;99.90
56771;DHT22;42641;59.794;17.616;2023-04-01T03:41:04;-6.80;99.90
56771;DHT22;42641;59.794;17.616;2023-04-01T03:43:33;-6.80;99.90
56771;DHT22;42641;59.794;17.616;2023-04-01T03:46:00;-6.80;99.90
56771;DHT22;42641;59.794;17.616;2023-04-01T03:48:26;-6.90;99.90
56771;DHT22;42641;59.794;17.616;2023-04-01T03:50:53;-6.90;99.90
56771;DHT22;42641;59.794;17.616;2023-04-01T03:53:20;-6.90;99.90
56771;DHT22;42641;59.794;17.616;2023-04-01T03:55:47;-6.90;99.90
56771;DHT22;42641;59.794;17.616;2023-04-01T03:58:15;-6.90;99.90
56771;DHT22;42641;59.794;17.616;2023-04-01T04:00:41;-6.80;99.90
56771;DHT22;42641;59.794;17.616;2023-04-01T04:03:09;-6.80;99.90
56771;DHT22;42641;59.794;17.616;2023-04-01T04:05:36;-6.80;99.90
56771;DHT22;42641;59.794;17.616;2023-04-01T04:08:02;-6.80;99.90
56771;DHT22;42641;59.794;17.616;2023-04-01T04:10:29;-6.80;99.90
56771;DHT22;42641;59.794;17.616;2023-04-01T04:12:56;-6.70;99.90
56771;DHT22;42641;59.794;17.616;2023-04-01T04:15:24;-6.70;99.90
56771;DHT22;42641;59.794;17.616;2023-04-01T04:17:51;-6.80;99.90
56771;DHT22;42641;59.794;17.616;2023-04-01T04:20:17;-6.80;99.90
56771;DHT22;42641;59.794;17.616;2023-04-01T04:22:44;-6.70;99.90
56771;DHT22;42641;59.794;17.616;2023-04-01T04:25:11;-6.70;99.90
56771;DHT22;42641;59.794;17.616;2023-04-01T04:27:38;-6.70;99.90
56771;DHT22;42641;59.794;17.616;2023-04-01T04:30:12;-6.70;99.90
56771;DHT22;42641;59.794;17.616;2023-04-01T04:32:39;-6.60;99.90
56771;DHT22;42641;59.794;17.616;2023-04-01T04:35:08;-6.60;99.90
56771;DHT22;42641;59.794;17.616;2023-04-01T04:37:34;-6.60;99.90
56771;DHT22;42641;59.794;17.616;2023-04-01T04:40:01;-6.60;99.90
56771;DHT22;42641;59.794;17.616;2023-04-01T04:42:28;-6.60;99.90
56771;DHT22;42641;59.794;17.616;2023-04-01T04:45:00;-6.50;99.90
56771;DHT22;42641;59.794;17.616;2023-04-01T04:47:27;-6.60;99.90
56771;DHT22;42641;59.794;17.616;2023-04-01T04:49:53;-6.50;99.90
56771;DHT22;42641;59.794;17.616;2023-04-01T04:52:20;-6.50;99.90
56771;DHT22;42641;59.794;17.616;2023-04-01T04:54:47;-6.50;99.90
56771;DHT22;42641;59.794;17.616;2023-04-01T04:57:14;-6.50;99.90
56771;DHT22;42641;59.794;17.616;2023-04-01T04:59:47;-6.40;99.90
56771;DHT22;42641;59.794;17.616;2023-04-01T05:02:19;-6.40;99.90
56771;DHT22;42641;59.794;17.616;2023-04-01T05:04:47;-6.40;99.90
56771;DHT22;42641;59.794;17.616;2023-04-01T05:07:14;-6.30;99.90
56771;DHT22;42641;59.794;17.616;2023-04-01T05:09:41;-6.30;99.90
56771;DHT22;42641;59.794;17.616;2023-04-01T05:12:07;-6.30;99.90
56771;DHT22;42641;59.794;17.616;2023-04-01T05:14:57;-6.20;99.90
56771;DHT22;42641;59.794;17.616;2023-04-01T05:17:24;-6.00;99.90
56771;DHT22;42641;59.794;17.616;2023-04-01T05:19:50;-6.00;99.90
56771;DHT22;42641;59.794;17.616;2023-04-01T05:22:17;-5.90;99.90
56771;DHT22;42641;59.794;17.616;2023-04-01T05:24:44;-5.80;99.90
56771;DHT22;42641;59.794;17.616;2023-04-01T05:27:10;-5.70;99.90
56771;DHT22;42641;59.794;17.616;2023-04-01T05:29:39;-5.60;99.90
56771;DHT22;42641;59.794;17.616;2023-04-01T05:32:09;-5.50;99.90
56771;DHT22;42641;59.794;17.616;2023-04-01T05:34:35;-5.40;99.90
56771;DHT22;42641;59.794;17.616;2023-04-01T05:37:02;-5.20;99.90
56771;DHT22;42641;59.794;17.616;2023-04-01T05:39:28;-5.00;99.90
56771;DHT22;42641;59.794;17.616;2023-04-01T05:41:55;-4.90;99.90
56771;DHT22;42641;59.794;17.616;2023-04-01T05:44:21;-4.80;99.90
56771;DHT22;42641;59.794;17.616;2023-04-01T05:46:48;-4.70;99.90
56771;DHT22;42641;59.794;17.616;2023-04-01T05:49:19;-4.60;99.90
56771;DHT22;42641;59.794;17.616;2023-04-01T05:51:46;-4.40;99.90
56771;DHT22;42641;59.794;17.616;2023-04-01T05:54:12;-4.30;99.90
56771;DHT22;42641;59.794;17.616;2023-04-01T05:56:39;-4.10;99.90
56771;DHT22;42641;59.794;17.616;2023-04-01T05:59:06;-4.00;99.90
56771;DHT22;42641;59.794;17.616;2023-04-01T06:01:32;-3.90;99.90
56771;DHT22;42641;59.794;17.616;2023-04-01T06:03:58;-3.80;99.90
56771;DHT22;42641;59.794;17.616;2023-04-01T06:06:28;-3.60;99.90
56771;DHT22;42641;59.794;17.616;2023-04-01T06:09:22;-3.50;99.90
56771;DHT22;42641;59.794;17.616;2023-04-01T06:34:05;-2.30;99.90
56771;DHT22;42641;59.794;17.616;2023-04-01T06:42:44;-1.90;99.90
56771;DHT22;42641;59.794;17.616;2023-04-01T06:45:45;-1.70;99.90
56771;DHT22;42641;59.794;17.616;2023-04-01T06:58:10;-1.10;99.90
56771;DHT22;42641;59.794;17.616;2023-04-01T07:00:40;-1.00;99.90
56771;DHT22;42641;59.794;17.616;2023-04-01T07:06:01;-0.70;99.90
56771;DHT22;42641;59.794;17.616;2023-04-01T07:08:29;-0.60;99.90
56771;DHT22;42641;59.794;17.616;2023-04-01T07:11:06;-0.50;99.90
56771;DHT22;42641;59.794;17.616;2023-04-01T07:13:55;-0.40;99.90
56771;DHT22;42641;59.794;17.616;2023-04-01T07:22:23;0.00;99.90
56771;DHT22;42641;59.794;17.616;2023-04-01T07:25:25;0.10;99.90
56771;DHT22;42641;59.794;17.616;2023-04-01T07:28:16;0.30;99.90
56771;DHT22;42641;59.794;17.616;2023-04-01T07:31:15;0.30;99.90
56771;DHT22;42641;59.794;17.616;2023-04-01T07:36:43;0.50;99.90
56771;DHT22;42641;59.794;17.616;2023-04-01T07:42:17;0.80;99.90
56771;DHT22;42641;59.794;17.616;2023-04-01T07:50:46;1.10;99.90
56771;DHT22;42641;59.794;17.616;2023-04-01T07:53:32;1.20;99.90
56771;DHT22;42641;59.794;17.616;2023-04-01T07:56:12;1.30;99.90
56771;DHT22;42641;59.794;17.616;2023-04-01T10:15:53;7.60;99.90
56771;DHT22;42641;59.794;17.616;2023-04-01T10:18:16;7.40;99.90
56771;DHT22;42641;59.794;17.616;2023-04-01T10:36:11;7.60;95.30
56771;DHT22;42641;59.794;17.616;2023-04-01T10:54:36;8.40;92.80
56771;DHT22;42641;59.794;17.616;2023-04-01T11:01:24;8.40;93.10
56771;DHT22;42641;59.794;17.616;2023-04-01T11:33:34;11.20;79.90
56771;DHT22;42641;59.794;17.616;2023-04-01T11:42:28;11.80;79.30
56771;DHT22;42641;59.794;17.616;2023-04-01T11:51:06;12.50;74.30
56771;DHT22;42641;59.794;17.616;2023-04-01T12:10:18;12.70;72.30
56771;DHT22;42641;59.794;17.616;2023-04-01T12:13:11;13.10;71.90
56771;DHT22;42641;59.794;17.616;2023-04-01T12:18:40;13.40;71.50
56771;DHT22;42641;59.794;17.616;2023-04-01T12:21:14;12.90;69.00
56771;DHT22;42641;59.794;17.616;2023-04-01T12:26:58;12.70;69.80
56771;DHT22;42641;59.794;17.616;2023-04-01T12:46:16;12.70;68.60
56771;DHT22;42641;59.794;17.616;2023-04-01T12:55:01;13.00;67.90
56771;DHT22;42641;59.794;17.616;2023-04-01T13:00:43;12.50;68.40
56771;DHT22;42641;59.794;17.616;2023-04-01T13:11:36;12.90;67.30
56771;DHT22;42641;59.794;17.616;2023-04-01T13:17:10;12.80;64.00
56771;DHT22;42641;59.794;17.616;2023-04-01T13:28:24;13.10;66.00
56771;DHT22;42641;59.794;17.616;2023-04-01T13:31:05;12.80;65.00
56771;DHT22;42641;59.794;17.616;2023-04-01T13:37:04;12.90;64.50
56771;DHT22;42641;59.794;17.616;2023-04-01T13:42:37;11.90;63.80
56771;DHT22;42641;59.794;17.616;2023-04-01T13:45:18;11.10;64.50
56771;DHT22;42641;59.794;17.616;2023-04-01T13:50:37;10.90;67.00
56771;DHT22;42641;59.794;17.616;2023-04-01T14:01:37;11.00;66.20
56771;DHT22;42641;59.794;17.616;2023-04-01T14:06:56;10.80;66.00
56771;DHT22;42641;59.794;17.616;2023-04-01T14:12:34;10.70;66.20
56771;DHT22;42641;59.794;17.616;2023-04-01T14:15:19;10.80;66.70
56771;DHT22;42641;59.794;17.616;2023-04-01T14:35:11;11.60;67.40
56771;DHT22;42641;59.794;17.616;2023-04-01T14:48:57;9.50;67.40
56771;DHT22;42641;59.794;17.616;2023-04-01T14:51:32;9.50;68.60
56771;DHT22;42641;59.794;17.616;2023-04-01T14:56:40;9.10;68.40
56771;DHT22;42641;59.794;17.616;2023-04-01T14:59:34;8.60;68.80
56771;DHT22;42641;59.794;17.616;2023-04-01T15:02:22;8.20;69.30
56771;DHT22;42641;59.794;17.616;2023-04-01T15:05:04;8.10;71.00
56771;DHT22;42641;59.794;17.616;2023-04-01T15:08:02;8.10;71.40
56771;DHT22;42641;59.794;17.616;2023-04-01T15:24:15;7.40;71.90
56771;DHT22;42641;59.794;17.616;2023-04-01T15:27:04;7.30;74.00
56771;DHT22;42641;59.794;17.616;2023-04-01T15:32:49;7.20;75.00
56771;DHT22;42641;59.794;17.616;2023-04-01T15:43:41;6.30;77.30
56771;DHT22;42641;59.794;17.616;2023-04-01T15:51:54;5.90;78.20
56771;DHT22;42641;59.794;17.616;2023-04-01T15:54:27;5.80;78.20
56771;DHT22;42641;59.794;17.616;2023-04-01T15:57:56;5.40;78.50
56771;DHT22;42641;59.794;17.616;2023-04-01T16:05:02;5.40;80.50
56771;DHT22;42641;59.794;17.616;2023-04-01T16:24:43;4.80;79.70
56771;DHT22;42641;59.794;17.616;2023-04-01T16:27:36;4.70;79.50
56771;DHT22;42641;59.794;17.616;2023-04-01T16:50:24;4.10;83.30
56771;DHT22;42641;59.794;17.616;2023-04-01T16:53:13;4.00;83.60
56771;DHT22;42641;59.794;17.616;2023-04-01T16:58:59;3.90;85.10
56771;DHT22;42641;59.794;17.616;2023-04-01T17:04:30;3.70;86.10
56771;DHT22;42641;59.794;17.616;2023-04-01T17:15:58;3.30;89.20
56771;DHT22;42641;59.794;17.616;2023-04-01T17:27:48;3.10;90.90
56771;DHT22;42641;59.794;17.616;2023-04-01T17:30:30;2.90;91.30
56771;DHT22;42641;59.794;17.616;2023-04-01T17:33:37;2.90;91.70
56771;DHT22;42641;59.794;17.616;2023-04-01T17:36:33;2.80;91.50
56771;DHT22;42641;59.794;17.616;2023-04-01T17:42:06;2.70;91.70
56771;DHT22;42641;59.794;17.616;2023-04-01T17:52:39;2.40;93.20
56771;DHT22;42641;59.794;17.616;2023-04-01T18:20:32;1.60;96.40
56771;DHT22;42641;59.794;17.616;2023-04-01T18:25:55;1.30;98.20
56771;DHT22;42641;59.794;17.616;2023-04-01T18:28:36;1.20;98.40
56771;DHT22;42641;59.794;17.616;2023-04-01T18:31:08;1.20;99.10
56771;DHT22;42641;59.794;17.616;2023-04-01T18:34:07;1.10;99.90
56771;DHT22;42641;59.794;17.616;2023-04-01T18:39:22;0.90;99.90
56771;DHT22;42641;59.794;17.616;2023-04-01T18:42:03;0.90;99.90
56771;DHT22;42641;59.794;17.616;2023-04-01T18:44:46;0.80;99.90
56771;DHT22;42641;59.794;17.616;2023-04-01T18:47:16;0.70;99.90
56771;DHT22;42641;59.794;17.616;2023-04-01T18:52:43;0.60;99.90
56771;DHT22;42641;59.794;17.616;2023-04-01T18:57:51;0.50;99.90
56771;DHT22;42641;59.794;17.616;2023-04-01T19:00:32;0.50;99.90
56771;DHT22;42641;59.794;17.616;2023-04-01T19:03:11;0.40;99.90
56771;DHT22;42641;59.794;17.616;2023-04-01T19:05:40;0.40;99.90
56771;DHT22;42641;59.794;17.616;2023-04-01T19:08:34;0.40;99.90
56771;DHT22;42641;59.794;17.616;2023-04-01T19:19:24;0.10;99.90
56771;DHT22;42641;59.794;17.616;2023-04-01T19:21:57;0.10;99.90
56771;DHT22;42641;59.794;17.616;2023-04-01T19:24:51;0.10;99.90
56771;DHT22;42641;59.794;17.616;2023-04-01T19:30:31;0.00;99.90
56771;DHT22;42641;59.794;17.616;2023-04-01T19:35:56;-0.10;99.90
56771;DHT22;42641;59.794;17.616;2023-04-01T19:38:31;-0.10;99.90
56771;DHT22;42641;59.794;17.616;2023-04-01T19:46:36;-0.20;99.90
56771;DHT22;42641;59.794;17.616;2023-04-01T19:59:36;-0.40;99.90
56771;DHT22;42641;59.794;17.616;2023-04-01T20:04:52;-0.40;99.90
56771;DHT22;42641;59.794;17.616;2023-04-01T20:07:29;-0.50;99.90
56771;DHT22;42641;59.794;17.616;2023-04-01T20:10:25;-0.50;99.90
56771;DHT22;42641;59.794;17.616;2023-04-01T20:15:44;-0.60;99.90
56771;DHT22;42641;59.794;17.616;2023-04-01T20:18:23;-0.70;99.90
56771;DHT22;42641;59.794;17.616;2023-04-01T20:21:18;-0.70;99.90
56771;DHT22;42641;59.794;17.616;2023-04-01T20:26:23;-0.80;99.90
56771;DHT22;42641;59.794;17.616;2023-04-01T20:31:29;-0.90;99.90
56771;DHT22;42641;59.794;17.616;2023-04-01T20:34:32;-0.80;99.90
56771;DHT22;42641;59.794;17.616;2023-04-01T20:50:50;-0.90;99.90
56771;DHT22;42641;59.794;17.616;2023-04-01T20:53:58;-1.00;99.90
56771;DHT22;42641;59.794;17.616;2023-04-01T20:59:16;-1.00;99.90
56771;DHT22;42641;59.794;17.616;2023-04-01T21:10:12;-1.10;99.90
56771;DHT22;42641;59.794;17.616;2023-04-01T21:23:48;-1.20;99.90
56771;DHT22;42641;59.794;17.616;2023-04-01T21:35:14;-1.40;99.90
56771;DHT22;42641;59.794;17.616;2023-04-01T21:43:38;-1.70;99.90
56771;DHT22;42641;59.794;17.616;2023-04-01T21:46:35;-1.70;99.90
56771;DHT22;42641;59.794;17.616;2023-04-01T21:52:17;-1.80;99.90
56771;DHT22;42641;59.794;17.616;2023-04-01T22:03:23;-1.90;99.90
56771;DHT22;42641;59.794;17.616;2023-04-01T22:06:06;-2.00;99.90
56771;DHT22;42641;59.794;17.616;2023-04-01T22:14:47;-2.10;99.90
56771;DHT22;42641;59.794;17.616;2023-04-01T22:17:35;-2.10;99.90
56771;DHT22;42641;59.794;17.616;2023-04-01T22:20:46;-2.00;99.90
56771;DHT22;42641;59.794;17.616;2023-04-01T22:23:18;-2.10;99.90
56771;DHT22;42641;59.794;17.616;2023-04-01T22:25:57;-2.10;99.90
56771;DHT22;42641;59.794;17.616;2023-04-01T22:28:50;-2.10;99.90
56771;DHT22;42641;59.794;17.616;2023-04-01T22:37:00;-2.20;99.90
56771;DHT22;42641;59.794;17.616;2023-04-01T22:50:39;-2.40;99.90
56771;DHT22;42641;59.794;17.616;2023-04-01T22:53:40;-2.50;99.90
56771;DHT22;42641;59.794;17.616;2023-04-01T22:56:18;-2.50;99.90
56771;DHT22;42641;59.794;17.616;2023-04-01T23:01:38;-2.50;99.90
56771;DHT22;42641;59.794;17.616;2023-04-01T23:04:09;-2.50;99.90
56771;DHT22;42641;59.794;17.616;2023-04-01T23:06:46;-2.50;99.90
56771;DHT22;42641;59.794;17.616;2023-04-01T23:09:23;-2.50;99.90
56771;DHT22;42641;59.794;17.616;2023-04-01T23:11:53;-2.50;99.90
56771;DHT22;42641;59.794;17.616;2023-04-01T23:22:35;-2.60;99.90
56771;DHT22;42641;59.794;17.616;2023-04-01T23:35:50;-2.70;99.90
56771;DHT22;42641;59.794;17.616;2023-04-01T23:38:18;-2.80;99.90
56771;DHT22;42641;59.794;17.616;2023-04-01T23:40:48;-2.80;99.90
56771;DHT22;42641;59.794;17.616;2023-04-01T23:43:33;-2.80;99.90
56771;DHT22;42641;59.794;17.616;2023-04-01T23:46:02;-2.80;99.90
56771;DHT22;42641;59.794;17.616;2023-04-01T23:48:40;-2.90;99.90
56771;DHT22;42641;59.794;17.616;2023-04-01T23:51:36;-2.90;99.90
56771;DHT22;42641;59.794;17.616;2023-04-01T23:57:13;-2.90;99.90
56771;DHT22;42641;59.794;17.616;2023-04-01T23:59:39;-3.00;99.90
